sensor_id;sensor_type;location;lat;lon;timestamp;P1;durP1;ratioP1;P2;durP2;ratioP2
15946;SDS011;8072;52.554;7.966;2023-01-09T00:01:16;3.07;;;1.60;;
15946;SDS011;8072;52.554;7.966;2023-01-09T00:03:44;1.40;;;1.30;;
15946;SDS011;8072;52.554;7.966;2023-01-09T00:06:10;3.80;;;1.63;;
15946;SDS011;8072;52.554;7.966;2023-01-09T00:08:36;3.93;;;1.50;;
15946;SDS011;8072;52.554;7.966;2023-01-09T00:11:02;4.73;;;1.97;;
15946;SDS011;8072;52.554;7.966;2023-01-09T00:13:27;2.03;;;1.50;;
15946;SDS011;8072;52.554;7.966;2023-01-09T00:15:53;1.67;;;1.40;;
15946;SDS011;8072;52.554;7.966;2023-01-09T00:18:19;2.10;;;1.40;;
15946;SDS011;8072;52.554;7.966;2023-01-09T00:20:44;2.97;;;1.60;;
15946;SDS011;8072;52.554;7.966;2023-01-09T00:23:10;4.17;;;1.73;;
15946;SDS011;8072;52.554;7.966;2023-01-09T00:25:36;2.10;;;1.50;;
15946;SDS011;8072;52.554;7.966;2023-01-09T00:28:01;2.20;;;1.70;;
15946;SDS011;8072;52.554;7.966;2023-01-09T00:30:28;2.30;;;1.50;;
15946;SDS011;8072;52.554;7.966;2023-01-09T00:32:54;2.90;;;1.70;;
15946;SDS011;8072;52.554;7.966;2023-01-09T00:35:21;3.20;;;1.70;;
15946;SDS011;8072;52.554;7.966;2023-01-09T00:37:48;4.33;;;1.77;;
15946;SDS011;8072;52.554;7.966;2023-01-09T00:40:14;3.27;;;1.47;;
15946;SDS011;8072;52.554;7.966;2023-01-09T00:42:42;3.00;;;1.60;;
15946;SDS011;8072;52.554;7.966;2023-01-09T00:45:12;3.57;;;1.70;;
15946;SDS011;8072;52.554;7.966;2023-01-09T00:47:47;2.77;;;1.70;;
15946;SDS011;8072;52.554;7.966;2023-01-09T00:50:18;8.57;;;2.10;;
15946;SDS011;8072;52.554;7.966;2023-01-09T00:52:47;3.40;;;1.77;;
15946;SDS011;8072;52.554;7.966;2023-01-09T00:55:15;2.70;;;1.50;;
15946;SDS011;8072;52.554;7.966;2023-01-09T00:57:41;2.27;;;1.90;;
15946;SDS011;8072;52.554;7.966;2023-01-09T01:00:07;3.23;;;1.93;;
15946;SDS011;8072;52.554;7.966;2023-01-09T01:02:33;3.10;;;2.30;;
15946;SDS011;8072;52.554;7.966;2023-01-09T01:04:59;2.10;;;1.67;;
15946;SDS011;8072;52.554;7.966;2023-01-09T01:07:43;3.57;;;1.90;;
15946;SDS011;8072;52.554;7.966;2023-01-09T01:12:40;2.70;;;1.60;;
15946;SDS011;8072;52.554;7.966;2023-01-09T01:15:07;2.63;;;1.60;;
15946;SDS011;8072;52.554;7.966;2023-01-09T01:17:34;3.10;;;1.73;;
15946;SDS011;8072;52.554;7.966;2023-01-09T01:20:02;1.80;;;1.70;;
15946;SDS011;8072;52.554;7.966;2023-01-09T01:22:29;2.23;;;1.73;;
15946;SDS011;8072;52.554;7.966;2023-01-09T01:24:56;8.03;;;2.07;;
15946;SDS011;8072;52.554;7.966;2023-01-09T01:27:21;3.80;;;1.70;;
15946;SDS011;8072;52.554;7.966;2023-01-09T01:29:48;3.33;;;1.60;;
15946;SDS011;8072;52.554;7.966;2023-01-09T01:32:14;5.97;;;1.90;;
15946;SDS011;8072;52.554;7.966;2023-01-09T01:34:39;3.50;;;2.00;;
15946;SDS011;8072;52.554;7.966;2023-01-09T01:37:05;4.80;;;2.17;;
15946;SDS011;8072;52.554;7.966;2023-01-09T01:39:31;6.07;;;2.37;;
15946;SDS011;8072;52.554;7.966;2023-01-09T01:41:57;2.43;;;1.90;;
15946;SDS011;8072;52.554;7.966;2023-01-09T01:50:04;2.73;;;2.00;;
15946;SDS011;8072;52.554;7.966;2023-01-09T01:52:55;3.27;;;1.90;;
15946;SDS011;8072;52.554;7.966;2023-01-09T01:55:30;3.33;;;2.10;;
15946;SDS011;8072;52.554;7.966;2023-01-09T01:57:59;2.17;;;1.77;;
15946;SDS011;8072;52.554;7.966;2023-01-09T02:00:34;2.53;;;1.90;;
15946;SDS011;8072;52.554;7.966;2023-01-09T02:03:03;1.90;;;1.67;;
15946;SDS011;8072;52.554;7.966;2023-01-09T02:05:30;2.93;;;1.80;;
15946;SDS011;8072;52.554;7.966;2023-01-09T02:07:58;1.80;;;1.70;;
15946;SDS011;8072;52.554;7.966;2023-01-09T02:10:23;2.17;;;1.73;;
15946;SDS011;8072;52.554;7.966;2023-01-09T02:12:49;2.33;;;1.80;;
15946;SDS011;8072;52.554;7.966;2023-01-09T02:15:15;2.37;;;1.73;;
15946;SDS011;8072;52.554;7.966;2023-01-09T02:17:56;2.13;;;1.67;;
15946;SDS011;8072;52.554;7.966;2023-01-09T02:23:37;2.40;;;1.60;;
15946;SDS011;8072;52.554;7.966;2023-01-09T02:26:42;2.87;;;1.50;;
15946;SDS011;8072;52.554;7.966;2023-01-09T02:29:58;1.23;;;1.13;;
15946;SDS011;8072;52.554;7.966;2023-01-09T02:32:33;1.40;;;1.30;;
15946;SDS011;8072;52.554;7.966;2023-01-09T02:35:10;1.33;;;1.13;;
15946;SDS011;8072;52.554;7.966;2023-01-09T02:43:00;1.23;;;1.20;;
15946;SDS011;8072;52.554;7.966;2023-01-09T02:45:27;1.57;;;0.80;;
15946;SDS011;8072;52.554;7.966;2023-01-09T02:47:53;2.03;;;1.10;;
15946;SDS011;8072;52.554;7.966;2023-01-09T02:50:20;1.33;;;1.00;;
15946;SDS011;8072;52.554;7.966;2023-01-09T03:04:40;1.80;;;1.00;;
15946;SDS011;8072;52.554;7.966;2023-01-09T03:07:13;1.83;;;1.20;;
15946;SDS011;8072;52.554;7.966;2023-01-09T03:09:47;2.47;;;1.30;;
15946;SDS011;8072;52.554;7.966;2023-01-09T03:12:17;1.13;;;1.03;;
15946;SDS011;8072;52.554;7.966;2023-01-09T03:14:47;1.03;;;1.03;;
15946;SDS011;8072;52.554;7.966;2023-01-09T03:17:17;2.93;;;1.10;;
15946;SDS011;8072;52.554;7.966;2023-01-09T03:19:51;2.00;;;1.13;;
15946;SDS011;8072;52.554;7.966;2023-01-09T03:22:18;2.63;;;1.20;;
15946;SDS011;8072;52.554;7.966;2023-01-09T03:24:45;1.23;;;1.13;;
15946;SDS011;8072;52.554;7.966;2023-01-09T03:27:10;1.40;;;1.10;;
15946;SDS011;8072;52.554;7.966;2023-01-09T03:29:36;1.13;;;1.10;;
15946;SDS011;8072;52.554;7.966;2023-01-09T03:32:02;1.60;;;1.50;;
15946;SDS011;8072;52.554;7.966;2023-01-09T03:34:28;3.03;;;1.77;;
15946;SDS011;8072;52.554;7.966;2023-01-09T03:36:54;3.03;;;1.63;;
15946;SDS011;8072;52.554;7.966;2023-01-09T03:39:20;6.40;;;1.90;;
15946;SDS011;8072;52.554;7.966;2023-01-09T03:41:46;2.53;;;1.50;;
15946;SDS011;8072;52.554;7.966;2023-01-09T03:44:11;3.00;;;1.60;;
15946;SDS011;8072;52.554;7.966;2023-01-09T03:46:37;1.67;;;1.40;;
15946;SDS011;8072;52.554;7.966;2023-01-09T03:49:03;1.60;;;1.30;;
15946;SDS011;8072;52.554;7.966;2023-01-09T03:51:29;3.00;;;1.57;;
15946;SDS011;8072;52.554;7.966;2023-01-09T03:53:54;1.70;;;1.60;;
15946;SDS011;8072;52.554;7.966;2023-01-09T03:56:20;1.47;;;1.37;;
15946;SDS011;8072;52.554;7.966;2023-01-09T03:58:46;2.30;;;1.43;;
15946;SDS011;8072;52.554;7.966;2023-01-09T04:01:14;2.50;;;1.97;;
15946;SDS011;8072;52.554;7.966;2023-01-09T04:03:40;2.47;;;2.20;;
15946;SDS011;8072;52.554;7.966;2023-01-09T04:06:06;3.00;;;2.10;;
15946;SDS011;8072;52.554;7.966;2023-01-09T04:08:32;3.10;;;2.43;;
15946;SDS011;8072;52.554;7.966;2023-01-09T04:10:59;2.93;;;2.63;;
15946;SDS011;8072;52.554;7.966;2023-01-09T04:13:25;3.83;;;2.73;;
15946;SDS011;8072;52.554;7.966;2023-01-09T04:15:51;4.07;;;3.07;;
15946;SDS011;8072;52.554;7.966;2023-01-09T04:18:16;4.67;;;3.60;;
15946;SDS011;8072;52.554;7.966;2023-01-09T04:20:45;4.10;;;2.87;;
15946;SDS011;8072;52.554;7.966;2023-01-09T04:23:11;5.70;;;3.10;;
15946;SDS011;8072;52.554;7.966;2023-01-09T04:25:37;7.73;;;3.30;;
15946;SDS011;8072;52.554;7.966;2023-01-09T04:28:03;4.23;;;2.87;;
15946;SDS011;8072;52.554;7.966;2023-01-09T04:30:29;4.90;;;3.27;;
15946;SDS011;8072;52.554;7.966;2023-01-09T04:32:54;3.37;;;2.90;;
15946;SDS011;8072;52.554;7.966;2023-01-09T04:35:20;5.17;;;3.07;;
15946;SDS011;8072;52.554;7.966;2023-01-09T04:37:46;7.53;;;3.87;;
15946;SDS011;8072;52.554;7.966;2023-01-09T04:40:12;6.67;;;3.70;;
15946;SDS011;8072;52.554;7.966;2023-01-09T04:42:43;6.20;;;3.67;;
15946;SDS011;8072;52.554;7.966;2023-01-09T04:45:10;6.13;;;3.60;;
15946;SDS011;8072;52.554;7.966;2023-01-09T04:47:36;5.50;;;3.87;;
15946;SDS011;8072;52.554;7.966;2023-01-09T04:50:02;7.53;;;3.97;;
15946;SDS011;8072;52.554;7.966;2023-01-09T04:52:29;5.43;;;4.27;;
15946;SDS011;8072;52.554;7.966;2023-01-09T04:54:55;9.87;;;5.20;;
15946;SDS011;8072;52.554;7.966;2023-01-09T04:57:20;8.17;;;4.90;;
15946;SDS011;8072;52.554;7.966;2023-01-09T04:59:46;9.77;;;4.57;;
15946;SDS011;8072;52.554;7.966;2023-01-09T05:02:12;5.93;;;4.10;;
15946;SDS011;8072;52.554;7.966;2023-01-09T05:04:38;5.07;;;3.80;;
15946;SDS011;8072;52.554;7.966;2023-01-09T05:07:03;9.00;;;3.80;;
15946;SDS011;8072;52.554;7.966;2023-01-09T05:09:29;5.77;;;4.57;;
15946;SDS011;8072;52.554;7.966;2023-01-09T05:11:55;7.03;;;4.50;;
15946;SDS011;8072;52.554;7.966;2023-01-09T05:14:20;5.07;;;3.40;;
15946;SDS011;8072;52.554;7.966;2023-01-09T05:16:46;6.57;;;3.67;;
15946;SDS011;8072;52.554;7.966;2023-01-09T05:19:12;8.17;;;4.20;;
15946;SDS011;8072;52.554;7.966;2023-01-09T05:21:38;10.00;;;4.33;;
15946;SDS011;8072;52.554;7.966;2023-01-09T05:24:04;8.90;;;3.37;;
15946;SDS011;8072;52.554;7.966;2023-01-09T05:26:29;8.67;;;3.80;;
15946;SDS011;8072;52.554;7.966;2023-01-09T05:28:55;7.07;;;4.10;;
15946;SDS011;8072;52.554;7.966;2023-01-09T05:31:22;6.80;;;3.90;;
15946;SDS011;8072;52.554;7.966;2023-01-09T05:33:49;6.93;;;3.70;;
15946;SDS011;8072;52.554;7.966;2023-01-09T05:36:15;6.43;;;3.60;;
15946;SDS011;8072;52.554;7.966;2023-01-09T05:38:41;5.17;;;3.47;;
15946;SDS011;8072;52.554;7.966;2023-01-09T05:41:06;7.17;;;3.63;;
15946;SDS011;8072;52.554;7.966;2023-01-09T05:43:33;7.47;;;3.50;;
15946;SDS011;8072;52.554;7.966;2023-01-09T05:45:59;5.30;;;3.33;;
15946;SDS011;8072;52.554;7.966;2023-01-09T05:48:24;5.17;;;3.83;;
15946;SDS011;8072;52.554;7.966;2023-01-09T05:50:50;7.13;;;3.70;;
15946;SDS011;8072;52.554;7.966;2023-01-09T05:53:16;7.73;;;3.40;;
15946;SDS011;8072;52.554;7.966;2023-01-09T05:55:42;6.67;;;4.03;;
15946;SDS011;8072;52.554;7.966;2023-01-09T05:58:07;5.23;;;3.63;;
15946;SDS011;8072;52.554;7.966;2023-01-09T06:00:33;8.13;;;3.87;;
15946;SDS011;8072;52.554;7.966;2023-01-09T06:02:59;6.17;;;3.97;;
15946;SDS011;8072;52.554;7.966;2023-01-09T06:05:24;8.07;;;4.30;;
15946;SDS011;8072;52.554;7.966;2023-01-09T06:07:50;6.40;;;3.80;;
15946;SDS011;8072;52.554;7.966;2023-01-09T06:10:16;6.23;;;4.00;;
15946;SDS011;8072;52.554;7.966;2023-01-09T06:12:45;8.83;;;4.40;;
15946;SDS011;8072;52.554;7.966;2023-01-09T06:15:12;7.50;;;4.20;;
15946;SDS011;8072;52.554;7.966;2023-01-09T06:17:39;10.00;;;4.57;;
15946;SDS011;8072;52.554;7.966;2023-01-09T06:20:06;8.60;;;4.40;;
15946;SDS011;8072;52.554;7.966;2023-01-09T06:22:32;9.50;;;4.53;;
15946;SDS011;8072;52.554;7.966;2023-01-09T06:24:58;8.27;;;4.37;;
15946;SDS011;8072;52.554;7.966;2023-01-09T06:27:24;8.40;;;4.73;;
15946;SDS011;8072;52.554;7.966;2023-01-09T06:29:50;10.63;;;4.50;;
15946;SDS011;8072;52.554;7.966;2023-01-09T06:32:15;9.30;;;5.00;;
15946;SDS011;8072;52.554;7.966;2023-01-09T06:34:41;9.73;;;4.67;;
15946;SDS011;8072;52.554;7.966;2023-01-09T06:37:07;8.47;;;5.07;;
15946;SDS011;8072;52.554;7.966;2023-01-09T06:39:32;10.37;;;4.90;;
15946;SDS011;8072;52.554;7.966;2023-01-09T06:41:58;7.50;;;5.37;;
15946;SDS011;8072;52.554;7.966;2023-01-09T06:44:24;9.00;;;5.10;;
15946;SDS011;8072;52.554;7.966;2023-01-09T06:46:49;9.03;;;5.40;;
15946;SDS011;8072;52.554;7.966;2023-01-09T06:49:15;8.37;;;5.97;;
15946;SDS011;8072;52.554;7.966;2023-01-09T06:51:47;8.57;;;5.73;;
15946;SDS011;8072;52.554;7.966;2023-01-09T06:54:16;10.47;;;5.37;;
15946;SDS011;8072;52.554;7.966;2023-01-09T06:56:42;13.03;;;6.20;;
15946;SDS011;8072;52.554;7.966;2023-01-09T06:59:08;12.17;;;5.70;;
15946;SDS011;8072;52.554;7.966;2023-01-09T07:01:34;16.90;;;6.33;;
15946;SDS011;8072;52.554;7.966;2023-01-09T07:04:00;9.47;;;5.27;;
15946;SDS011;8072;52.554;7.966;2023-01-09T07:06:25;9.57;;;5.60;;
15946;SDS011;8072;52.554;7.966;2023-01-09T07:08:51;12.13;;;5.40;;
15946;SDS011;8072;52.554;7.966;2023-01-09T07:11:17;13.47;;;4.97;;
15946;SDS011;8072;52.554;7.966;2023-01-09T07:13:42;8.57;;;4.80;;
15946;SDS011;8072;52.554;7.966;2023-01-09T07:16:08;11.90;;;5.87;;
15946;SDS011;8072;52.554;7.966;2023-01-09T07:18:34;8.83;;;5.47;;
15946;SDS011;8072;52.554;7.966;2023-01-09T07:21:01;9.70;;;4.90;;
15946;SDS011;8072;52.554;7.966;2023-01-09T07:23:27;15.17;;;4.87;;
15946;SDS011;8072;52.554;7.966;2023-01-09T07:25:52;11.87;;;4.97;;
15946;SDS011;8072;52.554;7.966;2023-01-09T07:28:18;8.03;;;4.60;;
15946;SDS011;8072;52.554;7.966;2023-01-09T07:30:44;8.80;;;4.33;;
15946;SDS011;8072;52.554;7.966;2023-01-09T07:33:09;9.20;;;4.97;;
15946;SDS011;8072;52.554;7.966;2023-01-09T07:35:35;13.57;;;4.93;;
15946;SDS011;8072;52.554;7.966;2023-01-09T07:38:01;11.43;;;5.17;;
15946;SDS011;8072;52.554;7.966;2023-01-09T07:40:26;9.60;;;4.53;;
15946;SDS011;8072;52.554;7.966;2023-01-09T07:42:52;11.67;;;5.10;;
15946;SDS011;8072;52.554;7.966;2023-01-09T07:45:18;16.50;;;5.57;;
15946;SDS011;8072;52.554;7.966;2023-01-09T07:47:44;10.13;;;5.37;;
15946;SDS011;8072;52.554;7.966;2023-01-09T07:50:09;9.83;;;4.97;;
15946;SDS011;8072;52.554;7.966;2023-01-09T07:52:35;12.03;;;5.63;;
15946;SDS011;8072;52.554;7.966;2023-01-09T07:55:01;12.07;;;5.40;;
15946;SDS011;8072;52.554;7.966;2023-01-09T07:57:27;10.73;;;5.37;;
15946;SDS011;8072;52.554;7.966;2023-01-09T07:59:54;14.03;;;5.53;;
15946;SDS011;8072;52.554;7.966;2023-01-09T08:02:20;7.00;;;5.63;;
15946;SDS011;8072;52.554;7.966;2023-01-09T08:04:46;8.10;;;5.83;;
15946;SDS011;8072;52.554;7.966;2023-01-09T08:07:12;9.77;;;5.73;;
15946;SDS011;8072;52.554;7.966;2023-01-09T08:09:38;9.00;;;6.03;;
15946;SDS011;8072;52.554;7.966;2023-01-09T08:12:03;8.93;;;6.13;;
15946;SDS011;8072;52.554;7.966;2023-01-09T08:14:30;14.33;;;8.23;;
15946;SDS011;8072;52.554;7.966;2023-01-09T08:16:55;16.10;;;7.40;;
15946;SDS011;8072;52.554;7.966;2023-01-09T08:19:21;10.23;;;7.03;;
15946;SDS011;8072;52.554;7.966;2023-01-09T08:21:48;14.03;;;7.63;;
15946;SDS011;8072;52.554;7.966;2023-01-09T08:24:14;12.87;;;7.40;;
15946;SDS011;8072;52.554;7.966;2023-01-09T08:26:39;12.47;;;6.77;;
15946;SDS011;8072;52.554;7.966;2023-01-09T08:29:05;13.80;;;7.07;;
15946;SDS011;8072;52.554;7.966;2023-01-09T08:31:31;10.90;;;7.10;;
15946;SDS011;8072;52.554;7.966;2023-01-09T08:33:56;12.83;;;7.93;;
15946;SDS011;8072;52.554;7.966;2023-01-09T08:36:22;17.60;;;7.47;;
15946;SDS011;8072;52.554;7.966;2023-01-09T08:38:48;10.77;;;7.23;;
15946;SDS011;8072;52.554;7.966;2023-01-09T08:41:15;10.90;;;7.27;;
15946;SDS011;8072;52.554;7.966;2023-01-09T08:44:01;12.90;;;7.20;;
15946;SDS011;8072;52.554;7.966;2023-01-09T08:46:45;12.70;;;7.73;;
15946;SDS011;8072;52.554;7.966;2023-01-09T08:49:29;13.50;;;7.33;;
15946;SDS011;8072;52.554;7.966;2023-01-09T08:51:55;9.93;;;6.90;;
15946;SDS011;8072;52.554;7.966;2023-01-09T08:54:21;12.10;;;6.67;;
15946;SDS011;8072;52.554;7.966;2023-01-09T08:56:47;11.53;;;6.97;;
15946;SDS011;8072;52.554;7.966;2023-01-09T08:59:13;12.23;;;6.37;;
15946;SDS011;8072;52.554;7.966;2023-01-09T09:01:40;14.03;;;6.50;;
15946;SDS011;8072;52.554;7.966;2023-01-09T09:04:06;17.57;;;6.60;;
15946;SDS011;8072;52.554;7.966;2023-01-09T09:06:32;12.07;;;6.97;;
15946;SDS011;8072;52.554;7.966;2023-01-09T09:08:58;9.50;;;6.13;;
15946;SDS011;8072;52.554;7.966;2023-01-09T09:11:34;9.00;;;6.00;;
15946;SDS011;8072;52.554;7.966;2023-01-09T09:14:00;12.33;;;5.57;;
15946;SDS011;8072;52.554;7.966;2023-01-09T09:16:46;11.00;;;6.13;;
15946;SDS011;8072;52.554;7.966;2023-01-09T09:19:11;8.07;;;5.70;;
15946;SDS011;8072;52.554;7.966;2023-01-09T09:21:37;9.30;;;5.73;;
15946;SDS011;8072;52.554;7.966;2023-01-09T09:24:03;8.77;;;6.13;;
15946;SDS011;8072;52.554;7.966;2023-01-09T09:26:29;9.77;;;5.10;;
15946;SDS011;8072;52.554;7.966;2023-01-09T09:28:54;9.37;;;5.40;;
15946;SDS011;8072;52.554;7.966;2023-01-09T09:31:20;9.00;;;4.57;;
15946;SDS011;8072;52.554;7.966;2023-01-09T09:33:46;11.53;;;4.57;;
15946;SDS011;8072;52.554;7.966;2023-01-09T09:36:12;8.87;;;4.60;;
15946;SDS011;8072;52.554;7.966;2023-01-09T09:38:37;9.50;;;4.33;;
15946;SDS011;8072;52.554;7.966;2023-01-09T09:44:14;11.23;;;4.53;;
15946;SDS011;8072;52.554;7.966;2023-01-09T09:49:49;6.70;;;3.93;;
15946;SDS011;8072;52.554;7.966;2023-01-09T09:54:54;8.60;;;3.43;;
15946;SDS011;8072;52.554;7.966;2023-01-09T09:57:26;9.83;;;4.00;;
15946;SDS011;8072;52.554;7.966;2023-01-09T09:59:57;6.97;;;3.17;;
15946;SDS011;8072;52.554;7.966;2023-01-09T10:02:27;5.87;;;3.23;;
15946;SDS011;8072;52.554;7.966;2023-01-09T10:05:08;11.23;;;3.70;;
15946;SDS011;8072;52.554;7.966;2023-01-09T10:07:41;5.37;;;2.90;;
15946;SDS011;8072;52.554;7.966;2023-01-09T10:12:53;8.10;;;3.10;;
15946;SDS011;8072;52.554;7.966;2023-01-09T10:20:56;8.07;;;2.63;;
15946;SDS011;8072;52.554;7.966;2023-01-09T10:23:33;8.53;;;2.97;;
15946;SDS011;8072;52.554;7.966;2023-01-09T10:26:12;7.87;;;2.10;;
15946;SDS011;8072;52.554;7.966;2023-01-09T10:39:15;6.47;;;2.53;;
15946;SDS011;8072;52.554;7.966;2023-01-09T10:44:34;3.33;;;2.23;;
15946;SDS011;8072;52.554;7.966;2023-01-09T10:47:09;5.20;;;2.03;;
15946;SDS011;8072;52.554;7.966;2023-01-09T10:49:45;3.50;;;2.20;;
15946;SDS011;8072;52.554;7.966;2023-01-09T10:52:18;5.57;;;2.67;;
15946;SDS011;8072;52.554;7.966;2023-01-09T10:54:59;4.40;;;2.33;;
15946;SDS011;8072;52.554;7.966;2023-01-09T10:57:42;6.83;;;2.80;;
15946;SDS011;8072;52.554;7.966;2023-01-09T11:00:19;8.43;;;2.30;;
15946;SDS011;8072;52.554;7.966;2023-01-09T11:02:46;7.13;;;3.33;;
15946;SDS011;8072;52.554;7.966;2023-01-09T11:05:14;4.97;;;3.20;;
15946;SDS011;8072;52.554;7.966;2023-01-09T11:07:46;7.07;;;2.60;;
15946;SDS011;8072;52.554;7.966;2023-01-09T11:10:17;8.57;;;3.60;;
15946;SDS011;8072;52.554;7.966;2023-01-09T11:12:43;7.83;;;2.83;;
15946;SDS011;8072;52.554;7.966;2023-01-09T11:17:41;3.10;;;2.80;;
15946;SDS011;8072;52.554;7.966;2023-01-09T11:22:46;9.10;;;3.20;;
15946;SDS011;8072;52.554;7.966;2023-01-09T11:25:17;6.23;;;3.00;;
15946;SDS011;8072;52.554;7.966;2023-01-09T11:30:25;7.47;;;3.00;;
15946;SDS011;8072;52.554;7.966;2023-01-09T11:32:52;5.77;;;3.60;;
15946;SDS011;8072;52.554;7.966;2023-01-09T11:35:23;8.63;;;3.70;;
15946;SDS011;8072;52.554;7.966;2023-01-09T11:40:52;5.40;;;3.60;;
15946;SDS011;8072;52.554;7.966;2023-01-09T11:43:25;7.57;;;3.87;;
15946;SDS011;8072;52.554;7.966;2023-01-09T11:45:55;7.73;;;3.67;;
15946;SDS011;8072;52.554;7.966;2023-01-09T11:51:01;8.60;;;4.33;;
15946;SDS011;8072;52.554;7.966;2023-01-09T11:53:40;7.63;;;3.97;;
15946;SDS011;8072;52.554;7.966;2023-01-09T11:56:13;8.57;;;4.33;;
15946;SDS011;8072;52.554;7.966;2023-01-09T11:58:40;4.97;;;4.30;;
15946;SDS011;8072;52.554;7.966;2023-01-09T12:10:00;6.53;;;4.13;;
15946;SDS011;8072;52.554;7.966;2023-01-09T12:37:12;6.23;;;2.83;;
15946;SDS011;8072;52.554;7.966;2023-01-09T12:39:48;7.30;;;3.00;;
15946;SDS011;8072;52.554;7.966;2023-01-09T12:47:46;8.50;;;3.30;;
15946;SDS011;8072;52.554;7.966;2023-01-09T12:56:11;6.83;;;3.50;;
15946;SDS011;8072;52.554;7.966;2023-01-09T13:01:12;7.53;;;3.33;;
15946;SDS011;8072;52.554;7.966;2023-01-09T13:03:49;7.10;;;3.13;;
15946;SDS011;8072;52.554;7.966;2023-01-09T13:06:26;6.73;;;3.10;;
15946;SDS011;8072;52.554;7.966;2023-01-09T13:09:37;7.83;;;3.00;;
15946;SDS011;8072;52.554;7.966;2023-01-09T13:12:03;4.60;;;3.07;;
15946;SDS011;8072;52.554;7.966;2023-01-09T13:14:38;7.30;;;3.50;;
15946;SDS011;8072;52.554;7.966;2023-01-09T13:17:19;7.90;;;3.37;;
15946;SDS011;8072;52.554;7.966;2023-01-09T13:19:49;4.47;;;2.80;;
15946;SDS011;8072;52.554;7.966;2023-01-09T13:22:17;5.57;;;3.43;;
15946;SDS011;8072;52.554;7.966;2023-01-09T13:27:21;3.80;;;2.73;;
15946;SDS011;8072;52.554;7.966;2023-01-09T13:29:51;5.23;;;2.63;;
15946;SDS011;8072;52.554;7.966;2023-01-09T13:34:54;4.10;;;2.80;;
15946;SDS011;8072;52.554;7.966;2023-01-09T13:39:59;4.73;;;2.77;;
15946;SDS011;8072;52.554;7.966;2023-01-09T13:42:26;5.23;;;2.90;;
15946;SDS011;8072;52.554;7.966;2023-01-09T13:50:36;4.37;;;3.40;;
15946;SDS011;8072;52.554;7.966;2023-01-09T13:58:25;5.73;;;2.70;;
15946;SDS011;8072;52.554;7.966;2023-01-09T14:00:52;3.10;;;2.47;;
15946;SDS011;8072;52.554;7.966;2023-01-09T14:03:27;5.97;;;2.80;;
15946;SDS011;8072;52.554;7.966;2023-01-09T14:06:04;2.97;;;2.67;;
15946;SDS011;8072;52.554;7.966;2023-01-09T14:08:36;5.37;;;2.43;;
15946;SDS011;8072;52.554;7.966;2023-01-09T14:11:03;4.40;;;2.50;;
15946;SDS011;8072;52.554;7.966;2023-01-09T14:13:37;3.90;;;2.30;;
15946;SDS011;8072;52.554;7.966;2023-01-09T14:16:17;3.33;;;2.17;;
15946;SDS011;8072;52.554;7.966;2023-01-09T14:18:51;5.13;;;2.30;;
15946;SDS011;8072;52.554;7.966;2023-01-09T14:21:21;3.83;;;1.90;;
15946;SDS011;8072;52.554;7.966;2023-01-09T14:23:49;3.10;;;2.30;;
15946;SDS011;8072;52.554;7.966;2023-01-09T14:26:41;3.20;;;2.00;;
15946;SDS011;8072;52.554;7.966;2023-01-09T14:37:39;4.90;;;2.10;;
15946;SDS011;8072;52.554;7.966;2023-01-09T14:40:06;3.63;;;2.23;;
15946;SDS011;8072;52.554;7.966;2023-01-09T14:42:52;5.80;;;2.50;;
15946;SDS011;8072;52.554;7.966;2023-01-09T14:45:23;3.57;;;2.30;;
15946;SDS011;8072;52.554;7.966;2023-01-09T14:47:53;3.73;;;2.20;;
15946;SDS011;8072;52.554;7.966;2023-01-09T14:55:34;4.10;;;2.50;;
15946;SDS011;8072;52.554;7.966;2023-01-09T14:58:11;8.77;;;2.57;;
15946;SDS011;8072;52.554;7.966;2023-01-09T15:01:33;5.40;;;2.90;;
15946;SDS011;8072;52.554;7.966;2023-01-09T15:03:51;5.67;;;2.60;;
15946;SDS011;8072;52.554;7.966;2023-01-09T15:06:23;3.13;;;2.43;;
15946;SDS011;8072;52.554;7.966;2023-01-09T15:11:32;6.93;;;2.93;;
15946;SDS011;8072;52.554;7.966;2023-01-09T15:14:02;3.67;;;2.57;;
15946;SDS011;8072;52.554;7.966;2023-01-09T15:16:29;6.07;;;2.80;;
15946;SDS011;8072;52.554;7.966;2023-01-09T15:18:58;5.53;;;3.17;;
15946;SDS011;8072;52.554;7.966;2023-01-09T15:21:28;3.30;;;2.97;;
15946;SDS011;8072;52.554;7.966;2023-01-09T15:26:59;3.20;;;2.77;;
15946;SDS011;8072;52.554;7.966;2023-01-09T15:29:27;4.53;;;2.97;;
15946;SDS011;8072;52.554;7.966;2023-01-09T15:31:55;5.80;;;3.40;;
15946;SDS011;8072;52.554;7.966;2023-01-09T15:34:43;5.53;;;4.00;;
15946;SDS011;8072;52.554;7.966;2023-01-09T15:39:54;6.80;;;3.47;;
15946;SDS011;8072;52.554;7.966;2023-01-09T15:42:26;7.40;;;3.70;;
15946;SDS011;8072;52.554;7.966;2023-01-09T15:45:17;7.27;;;3.90;;
15946;SDS011;8072;52.554;7.966;2023-01-09T15:50:42;5.57;;;3.70;;
15946;SDS011;8072;52.554;7.966;2023-01-09T15:53:12;6.10;;;3.80;;
15946;SDS011;8072;52.554;7.966;2023-01-09T15:55:40;6.23;;;3.97;;
15946;SDS011;8072;52.554;7.966;2023-01-09T15:58:25;8.97;;;4.30;;
15946;SDS011;8072;52.554;7.966;2023-01-09T16:00:56;8.90;;;4.00;;
15946;SDS011;8072;52.554;7.966;2023-01-09T16:03:46;5.80;;;4.10;;
15946;SDS011;8072;52.554;7.966;2023-01-09T16:06:18;8.23;;;4.20;;
15946;SDS011;8072;52.554;7.966;2023-01-09T16:08:49;9.47;;;4.70;;
15946;SDS011;8072;52.554;7.966;2023-01-09T16:11:23;11.43;;;4.67;;
15946;SDS011;8072;52.554;7.966;2023-01-09T16:14:15;9.40;;;5.40;;
15946;SDS011;8072;52.554;7.966;2023-01-09T16:16:42;12.83;;;4.70;;
15946;SDS011;8072;52.554;7.966;2023-01-09T16:19:28;11.67;;;5.10;;
15946;SDS011;8072;52.554;7.966;2023-01-09T16:21:57;9.87;;;5.80;;
15946;SDS011;8072;52.554;7.966;2023-01-09T16:24:25;10.07;;;4.67;;
15946;SDS011;8072;52.554;7.966;2023-01-09T16:29:49;14.33;;;5.30;;
15946;SDS011;8072;52.554;7.966;2023-01-09T16:32:20;7.77;;;4.97;;
15946;SDS011;8072;52.554;7.966;2023-01-09T16:34:51;11.17;;;5.57;;
15946;SDS011;8072;52.554;7.966;2023-01-09T16:37:19;8.63;;;5.70;;
15946;SDS011;8072;52.554;7.966;2023-01-09T16:40:08;8.80;;;5.53;;
15946;SDS011;8072;52.554;7.966;2023-01-09T16:42:37;11.23;;;6.07;;
15946;SDS011;8072;52.554;7.966;2023-01-09T16:45:23;10.97;;;5.93;;
15946;SDS011;8072;52.554;7.966;2023-01-09T16:47:50;10.57;;;5.47;;
15946;SDS011;8072;52.554;7.966;2023-01-09T16:50:16;12.10;;;6.43;;
15946;SDS011;8072;52.554;7.966;2023-01-09T16:52:42;12.70;;;5.67;;
15946;SDS011;8072;52.554;7.966;2023-01-09T16:55:08;12.00;;;5.87;;
15946;SDS011;8072;52.554;7.966;2023-01-09T16:57:35;15.03;;;6.30;;
15946;SDS011;8072;52.554;7.966;2023-01-09T17:00:02;12.17;;;6.60;;
15946;SDS011;8072;52.554;7.966;2023-01-09T17:02:28;13.90;;;6.80;;
15946;SDS011;8072;52.554;7.966;2023-01-09T17:04:54;14.17;;;8.20;;
15946;SDS011;8072;52.554;7.966;2023-01-09T17:07:20;11.83;;;6.90;;
15946;SDS011;8072;52.554;7.966;2023-01-09T17:09:50;13.53;;;6.87;;
15946;SDS011;8072;52.554;7.966;2023-01-09T17:12:18;12.70;;;6.93;;
15946;SDS011;8072;52.554;7.966;2023-01-09T17:14:46;12.80;;;6.80;;
15946;SDS011;8072;52.554;7.966;2023-01-09T17:17:13;17.17;;;6.93;;
15946;SDS011;8072;52.554;7.966;2023-01-09T17:19:39;18.57;;;8.07;;
15946;SDS011;8072;52.554;7.966;2023-01-09T17:22:05;14.50;;;6.77;;
15946;SDS011;8072;52.554;7.966;2023-01-09T17:24:32;18.97;;;7.53;;
15946;SDS011;8072;52.554;7.966;2023-01-09T17:27:21;18.33;;;7.70;;
15946;SDS011;8072;52.554;7.966;2023-01-09T17:30:17;14.20;;;7.70;;
15946;SDS011;8072;52.554;7.966;2023-01-09T17:32:43;17.13;;;6.97;;
15946;SDS011;8072;52.554;7.966;2023-01-09T17:35:12;16.73;;;6.80;;
15946;SDS011;8072;52.554;7.966;2023-01-09T17:37:40;15.53;;;6.57;;
15946;SDS011;8072;52.554;7.966;2023-01-09T17:40:12;20.53;;;5.60;;
15946;SDS011;8072;52.554;7.966;2023-01-09T17:42:43;15.93;;;6.40;;
15946;SDS011;8072;52.554;7.966;2023-01-09T17:45:09;16.10;;;5.83;;
15946;SDS011;8072;52.554;7.966;2023-01-09T17:47:35;15.97;;;6.23;;
15946;SDS011;8072;52.554;7.966;2023-01-09T17:50:01;10.23;;;6.03;;
15946;SDS011;8072;52.554;7.966;2023-01-09T17:52:28;13.73;;;7.40;;
15946;SDS011;8072;52.554;7.966;2023-01-09T17:54:54;14.83;;;6.20;;
15946;SDS011;8072;52.554;7.966;2023-01-09T17:57:19;11.60;;;5.80;;